KPCD/PCD METAR and TAF weather

Enter ICAO airport designator
Station Type Date Time Source
KPCD METAR 2022/01/19 19:55 UTC NOAA

KPCD 191955Z AUTO 36014G21KT 10SM BKN060 OVC080 00/M06 A3013 RMK AO2 T00001062


Station Type Date Time Source
KPCD Decoded METAR 2022/01/19 19:55 UTC NOAA

Station name not available
Jan 19, 2022 - 02:55 PM EST / 2022.01.19 1955 UTC
Wind: from the N (360 degrees) at 16 MPH (14 KT) gusting to 24 MPH (21 KT):0
Visibility: 10 mile(s):0
Sky conditions: overcast
Temperature: 32.0 F (0.0 C)
Windchill: 21 F (-6 C):1
Dew Point: 20.8 F (-6.2 C)
Relative Humidity: 62%
Pressure (altimeter): 30.13 in. Hg (1020 hPa)
ob: KPCD 191955Z AUTO 36014G21KT 10SM BKN060 OVC080 00/M06 A3013 RMK AO2 T00001062
cycle: 20

Station Type Date Time Source
KPCD TAF UTC NOAA

Error!

Example: see airport list